Flight Track Log - Related Links

Times and Time Zones

All times are in EDT time to prevent confusion due to time zone crossing. See the UAL4625 flight status page for this flight to view local times or setup timezone preferences in your user account.

Time Position Orientation Groundspeed Altitude Reporting Facility
EDT Latitude Longitude Course Direction KTS MPH feet Rate Location/Type
09:08 40.7500 -74.1000 180° South 218 251 2,600  Level New York TRACON
09:10 40.7522 -74.1733 272° West 272 313 6,200 2,133 Climbing New York Center
09:11 40.2993 -74.1502 194° South  Level FlightAware Approximate
09:11 40.7000 -74.2167 212° Southwest 259 298 9,000  Level New York TRACON
09:12 40.1967 -74.1844 194° South  Level FlightAware Approximate
09:13 40.0947 -74.2167 180° South  Level FlightAware Approximate
09:13 40.5922 -74.3650 226° Southwest 260 299 14,500  Level New York Center
09:14 40.5331 -74.4000 204° Southwest 265 305 16,000 763 Climbing New York Center
09:15 40.5006 -74.3000 113° Southeast 233 268 16,000 446 Level New York Center
09:16 40.4806 -74.2008 105° East 261 300 16,900 492 Climbing New York Center
09:17 40.3911 -74.1908 175° South 251 289 17,000 706 Climbing New York Center
09:19 40.2181 -74.2169 187° South 357 411 18,900 1,179 Climbing Washington Center
09:20 40.1100 -74.2353 187° South 379 436 20,300 1,714 Climbing Washington Center
09:21 40.0081 -74.2589 190° South 385 443 22,300 1,983 Climbing Washington Center
09:22 39.9256 -74.3281 213° Southwest 366 421 24,300 1,664 Climbing Washington Center
09:23 39.8389 -74.4106 216° Southwest 360 414 25,600 1,160 Climbing Washington Center
09:24 39.7647 -74.5011 223° Southwest 365 420 26,600 984 Climbing Washington Center
09:25 39.6906 -74.5964 225° Southwest 370 426 27,600 1,140 Climbing Washington Center
09:26 39.6164 -74.6972 226° Southwest 376 433 28,900 1,881 Climbing Washington Center
09:27 39.5503 -74.7842 225° Southwest 376 433 31,300 1,866 Climbing Washington Center
09:28 39.4822 -74.8736 225° Southwest 364 419 32,600 1,082 Climbing Washington Center
09:29 39.4158 -74.9603 225° Southwest 351 404 33,500 958 Climbing Washington Center
09:30 39.3456 -75.0522 225° Southwest 351 404 34,500 958 Climbing Washington Center
09:31 39.2647 -75.1278 216° Southwest 358 412 35,400 738 Climbing Washington Center
09:32 39.1647 -75.1714 199° South 364 419 36,000 298 Climbing Washington Center
09:33 39.0586 -75.2147 198° South 387 445 36,000  Level Washington Center
09:34 38.9483 -75.2606 198° South 404 465 36,000  Level Washington Center
09:35 38.8336 -75.3064 197° South 425 489 36,000  Level Washington Center
09:36 38.7150 -75.3575 199° South 439 505 36,000  Level Washington Center
09:37 38.5964 -75.4111 199° South 449 517 36,000  Level Washington Center
09:38 38.4753 -75.4644 199° South 455 524 36,000  Level Washington Center
09:39 38.3567 -75.5097 197° South 455 524 36,000  Level Washington Center
09:40 38.2669 -75.5839 213° Southwest 444 511 36,000  Level Washington Center
09:41 38.1711 -75.6736 216° Southwest 438 504 36,000  Level Washington Center
09:42 38.0708 -75.7658 216° Southwest 438 504 36,000  Level Washington Center
09:43 37.9747 -75.8553 216° Southwest 443 510 36,000  Level Washington Center
09:44 37.8786 -75.9494 218° Southwest 443 510 36,000  Level Washington Center
09:45 37.7739 -76.0517 218° Southwest 438 504 36,000  Level Washington Center
09:46 37.6756 -76.1453 217° Southwest 438 504 36,000  Level Washington Center
09:47 37.5856 -76.2181 213° Southwest 438 504 36,000  Level Washington Center
09:48 37.4869 -76.3089 216° Southwest 438 504 36,000  Level Washington Center
09:49 37.3906 -76.3969 216° Southwest 438 504 36,000  Level Washington Center
09:50 37.2917 -76.4900 217° Southwest 438 504 36,000  Level Washington Center
09:51 37.1931 -76.5775 215° Southwest 438 504 36,000  Level Washington Center
09:52 37.0942 -76.6697 217° Southwest 438 504 36,000  Level Washington Center
09:53 36.9975 -76.7569 216° Southwest 438 504 36,000  Level Washington Center
09:54 36.8986 -76.8464 216° Southwest 438 504 36,000  Level Washington Center
09:55 36.7994 -76.9331 215° Southwest 438 504 36,000  Level Washington Center
09:56 36.7025 -77.0219 216° Southwest 438 504 36,000  Level Washington Center
09:57 36.6075 -77.1133 218° Southwest 438 504 36,000  Level Washington Center
09:58 36.5125 -77.2044 218° Southwest 438 504 36,000  Level Washington Center
09:59 36.4153 -77.2956 217° Southwest 438 504 36,000  Level Washington Center
10:00 36.3178 -77.3861 217° Southwest 443 510 36,000  Level Washington Center
10:01 36.2161 -77.4842 218° Southwest 435 501 36,000  Level Washington Center
10:02 36.1189 -77.5744 217° Southwest 435 501 36,000  Level Washington Center
10:03 36.0192 -77.6644 216° Southwest 440 506 36,000  Level Washington Center
10:04 35.9217 -77.7492 215° Southwest 440 506 36,000  Level Washington Center
10:05 35.8181 -77.8308 213° Southwest 445 512 36,000  Level Washington Center
10:06 35.7269 -77.9025 213° Southwest 445 512 36,000 -246 Level Washington Center
10:07 35.6231 -77.9811 212° Southwest 445 512 35,500 -1,008 Descending Washington Center
10:08 35.5172 -78.0622 212° Southwest 445 512 34,000 -1,513 Descending Washington Center
10:09 35.4175 -78.1433 214° Southwest 445 512 32,500 -1,550 Descending Washington Center
10:10 35.3156 -78.2214 212° Southwest 445 512 30,900 -1,563 Descending Washington Center
10:11 35.2158 -78.2969 212° Southwest 440 506 29,400 -1,388 Descending Washington Center
10:12 35.1158 -78.3750 213° Southwest 440 506 28,100 -689 Descending Washington Center
10:13 35.0117 -78.4550 212° Southwest 440 506 28,000 -50 Descending Washington Center
10:14 34.9097 -78.5350 213° Southwest 440 506 28,000  Level Washington Center
10:15 34.7969 -78.6194 212° Southwest 445 512 28,000  Level Washington Center
10:18 34.5567 -78.8011 212° Southwest 440 506 28,000  Level Jacksonville Center
10:19 34.4531 -78.8864 214° Southwest 445 512 28,000  Level Jacksonville Center
10:20 34.3489 -78.9642 212° Southwest 445 512 28,000 -350 Level Jacksonville Center
10:21 34.2406 -79.0344 208° Southwest 445 512 27,300 -1,100 Descending Jacksonville Center
10:22 34.1192 -79.0900 201° Southwest 452 520 25,800 -1,500 Descending Jacksonville Center
10:23 33.9997 -79.1453 201° Southwest 465 535 24,300 -1,500 Descending Jacksonville Center
10:24 33.8825 -79.1978 200° South 465 535 22,800 -1,500 Descending Jacksonville Center
10:25 33.7714 -79.2525 202° Southwest 454 522 21,300 -1,600 Descending Jacksonville Center
10:26 33.6631 -79.3292 211° Southwest 435 501 19,600 -1,600 Descending Jacksonville Center
10:27 33.5711 -79.4003 213° Southwest 412 474 18,100 -2,100 Descending Jacksonville Center
10:28 33.4831 -79.4636 211° Southwest 394 453 15,400 -2,900 Descending Jacksonville Center
10:29 33.3972 -79.5314 213° Southwest 379 436 12,300 -1,867 Descending Jacksonville Center
10:31 33.2397 -79.6492 212° Southwest 349 402 9,800 -1,200 Descending Jacksonville Center
10:32 33.1764 -79.7011 214° Southwest 314 361 8,700 -1,050 Descending Jacksonville Center
10:33 33.1067 -79.7556 213° Southwest 302 348 7,700 -1,050 Descending Jacksonville Center
10:34 33.0389 -79.8050 211° Southwest 297 342 6,600 -1,050 Descending Jacksonville Center
10:35 32.9736 -79.8594 215° Southwest 297 342 5,600 -1,050 Descending Jacksonville Center
10:36 32.9100 -79.9086 213° Southwest 297 342 4,500 -1,100 Descending Jacksonville Center
10:37 32.8528 -79.9622 218° Southwest 285 328 3,400 -1,100 Descending Jacksonville Center

Login

Don't have an account? Register now (free) for customized features, flight alerts, and more!